Time;durP1;ratioP1;P1;durP2;ratioP2;P2;SDS_P1;SDS_P2;PMS_P1;PMS_P2;Temp;Humidity;BMP_temperature;BMP_pressure;BME280_temperature;BME280_humidity;BME280_pressure;Samples;Min_cycle;Max_cycle;Signal;HPM_P1;HPM_P2
2021/09/04 00:01:23;;;;;;;10.20;7.07;;;14.70;99.90;;;;;;4874942;29;20061;-70
2021/09/04 00:03:51;;;;;;;12.27;7.43;;;14.70;99.90;;;;;;4893231;29;20502;-70
2021/09/04 00:06:18;;;;;;;10.70;6.80;;;14.70;99.90;;;;;;4893876;29;20135;-69
2021/09/04 00:08:45;;;;;;;10.98;6.90;;;14.60;99.90;;;;;;4886058;29;20152;-69
2021/09/04 00:11:14;;;;;;;11.65;7.85;;;14.60;99.90;;;;;;4905700;29;20134;-69
2021/09/04 00:13:42;;;;;;;9.77;7.22;;;14.60;99.90;;;;;;4893669;29;20131;-69
2021/09/04 00:16:11;;;;;;;10.18;7.18;;;14.60;99.90;;;;;;4894510;29;20393;-69
2021/09/04 00:18:38;;;;;;;12.30;7.57;;;14.60;99.90;;;;;;4892971;29;20519;-69
2021/09/04 00:21:05;;;;;;;10.02;7.45;;;14.60;99.90;;;;;;4881806;29;20063;-69
2021/09/04 00:23:33;;;;;;;10.30;7.13;;;14.60;99.90;;;;;;4892352;29;20049;-69
2021/09/04 00:26:06;;;;;;;12.40;7.82;;;14.60;99.90;;;;;;4895336;29;20411;-69
2021/09/04 00:28:33;;;;;;;14.05;7.25;;;14.60;99.90;;;;;;4894735;29;20055;-69
2021/09/04 00:31:01;;;;;;;11.20;7.68;;;14.60;99.90;;;;;;4897749;29;20045;-68
2021/09/04 00:33:28;;;;;;;10.82;7.30;;;14.50;99.90;;;;;;4892100;29;20045;-68
2021/09/04 00:35:55;;;;;;;11.07;7.50;;;14.50;99.90;;;;;;4890243;29;20041;-68
2021/09/04 00:38:23;;;;;;;13.70;8.75;;;14.50;99.90;;;;;;4877380;29;20112;-69
2021/09/04 00:40:50;;;;;;;11.13;7.25;;;14.50;99.90;;;;;;4894776;29;20488;-68
2021/09/04 00:43:17;;;;;;;10.50;7.25;;;14.50;99.90;;;;;;4895481;29;20044;-68
2021/09/04 00:45:45;;;;;;;12.27;7.60;;;14.40;99.90;;;;;;4892790;29;20056;-68
2021/09/04 00:48:12;;;;;;;10.45;7.68;;;14.40;99.90;;;;;;4895576;29;20052;-68
2021/09/04 00:50:40;;;;;;;10.02;7.68;;;14.40;99.90;;;;;;4893198;29;20059;-69
2021/09/04 00:53:08;;;;;;;11.65;8.15;;;14.40;99.90;;;;;;4892736;29;20152;-69
2021/09/04 00:55:36;;;;;;;12.68;8.23;;;14.40;99.90;;;;;;4895143;29;20055;-69
2021/09/04 00:58:04;;;;;;;13.68;8.13;;;14.30;99.90;;;;;;4894790;29;20053;-69
2021/09/04 01:00:33;;;;;;;11.57;7.63;;;14.30;99.90;;;;;;4875173;29;20049;-68
2021/09/04 01:03:00;;;;;;;12.35;7.75;;;14.30;99.90;;;;;;4864182;29;20151;-69
2021/09/04 01:05:29;;;;;;;15.95;8.75;;;14.30;99.90;;;;;;4891353;29;20108;-69
2021/09/04 01:07:57;;;;;;;15.38;8.18;;;14.30;99.90;;;;;;4894210;29;20062;-69
2021/09/04 01:10:26;;;;;;;14.27;8.30;;;14.20;99.90;;;;;;4892654;29;20423;-69
2021/09/04 01:12:55;;;;;;;12.70;7.65;;;14.20;99.90;;;;;;4887151;29;20075;-69
2021/09/04 01:15:22;;;;;;;9.90;7.60;;;14.20;99.90;;;;;;4893650;29;20045;-69
2021/09/04 01:17:49;;;;;;;12.70;7.85;;;14.10;99.90;;;;;;4894510;29;20054;-68
2021/09/04 01:20:30;;;;;;;11.20;8.13;;;14.10;99.90;;;;;;4894298;29;20142;-68
2021/09/04 01:22:58;;;;;;;11.05;7.35;;;14.10;99.90;;;;;;4893670;29;20496;-69
2021/09/04 01:25:31;;;;;;;12.10;7.97;;;14.10;99.90;;;;;;4881561;29;20416;-68
2021/09/04 01:28:00;;;;;;;11.38;7.90;;;14.00;99.90;;;;;;4881321;29;20437;-69
2021/09/04 01:30:28;;;;;;;10.70;7.68;;;14.00;99.90;;;;;;4893213;29;20080;-69
2021/09/04 01:32:56;;;;;;;14.20;7.40;;;13.90;99.90;;;;;;4898573;29;20052;-69
2021/09/04 01:35:25;;;;;;;11.68;7.25;;;13.90;99.90;;;;;;4869385;29;20163;-69
2021/09/04 01:37:53;;;;;;;16.33;7.35;;;13.90;99.90;;;;;;4891635;29;20045;-69
2021/09/04 01:40:21;;;;;;;11.40;8.15;;;13.90;99.90;;;;;;4899318;29;20053;-68
2021/09/04 01:42:49;;;;;;;12.18;7.65;;;13.80;99.90;;;;;;4896773;29;20060;-68
2021/09/04 01:45:16;;;;;;;10.93;7.85;;;13.80;99.90;;;;;;4891832;29;20055;-68
2021/09/04 01:47:44;;;;;;;11.73;7.13;;;13.70;99.90;;;;;;4889012;29;20492;-69
2021/09/04 01:50:13;;;;;;;13.05;8.20;;;13.70;99.90;;;;;;4891787;29;20075;-68
2021/09/04 01:52:44;;;;;;;13.75;8.38;;;13.70;99.90;;;;;;4887196;29;20149;-69
2021/09/04 01:55:13;;;;;;;14.20;8.52;;;13.70;99.90;;;;;;4892312;29;20563;-70
2021/09/04 01:57:41;;;;;;;17.00;8.20;;;13.60;99.90;;;;;;4889804;29;20054;-69
2021/09/04 02:00:12;;;;;;;15.18;8.30;;;13.60;99.90;;;;;;4872737;29;20037;-69
2021/09/04 02:02:40;;;;;;;13.98;8.07;;;13.60;99.90;;;;;;4891065;29;20086;-68
2021/09/04 02:05:09;;;;;;;14.93;9.18;;;13.60;99.90;;;;;;4893672;29;20072;-69
2021/09/04 02:07:37;;;;;;;18.60;9.50;;;13.60;99.90;;;;;;4885157;29;20049;-68
2021/09/04 02:10:06;;;;;;;19.08;9.75;;;13.50;99.90;;;;;;4874820;29;20055;-69
2021/09/04 02:12:34;;;;;;;20.85;9.57;;;13.50;99.90;;;;;;4892529;29;20075;-68
2021/09/04 02:15:05;;;;;;;17.33;9.43;;;13.40;99.90;;;;;;4893959;29;20047;-69
2021/09/04 02:17:33;;;;;;;;;;;13.40;99.90;;;;;;4896201;29;20077;-69
2021/09/04 02:20:02;;;;;;;18.67;9.32;;;13.40;99.90;;;;;;4897754;29;20387;-69
2021/09/04 02:22:30;;;;;;;17.40;9.00;;;13.30;99.90;;;;;;4897768;29;20044;-69
2021/09/04 02:24:57;;;;;;;16.33;9.55;;;13.30;99.90;;;;;;4892172;29;20909;-69
2021/09/04 02:27:25;;;;;;;16.02;9.00;;;13.20;99.90;;;;;;4887609;29;20113;-69
2021/09/04 02:29:53;;;;;;;16.73;8.60;;;13.20;99.90;;;;;;4894647;29;20047;-69
2021/09/04 02:32:21;;;;;;;15.13;8.77;;;13.10;99.90;;;;;;4890621;29;20152;-69
2021/09/04 02:34:49;;;;;;;14.25;8.18;;;13.10;99.90;;;;;;4879320;29;20563;-69
2021/09/04 02:37:17;;;;;;;14.88;8.27;;;13.10;99.90;;;;;;4891358;29;20060;-69
2021/09/04 02:39:45;;;;;;;15.50;8.70;;;13.10;99.90;;;;;;4885771;29;20049;-69
2021/09/04 02:42:13;;;;;;;14.05;8.50;;;13.10;99.90;;;;;;4890713;29;20442;-69
2021/09/04 02:44:41;;;;;;;11.60;8.18;;;13.00;99.90;;;;;;4895534;29;20575;-69
2021/09/04 02:47:10;;;;;;;12.45;7.78;;;13.00;99.90;;;;;;4895862;29;20052;-69
2021/09/04 02:49:39;;;;;;;13.32;7.75;;;13.00;99.90;;;;;;4896068;29;20163;-69
2021/09/04 02:52:06;;;;;;;16.50;8.88;;;13.00;99.90;;;;;;4896159;29;20053;-69
2021/09/04 02:54:34;;;;;;;10.85;7.80;;;13.00;99.90;;;;;;4896361;29;20076;-69
2021/09/04 02:57:02;;;;;;;12.88;7.95;;;13.00;99.90;;;;;;4893105;29;20051;-69
2021/09/04 02:59:30;;;;;;;12.32;7.95;;;13.00;99.90;;;;;;4895789;29;20048;-69
2021/09/04 03:02:00;;;;;;;11.63;8.20;;;12.90;99.90;;;;;;4893911;29;20063;-69
2021/09/04 03:04:28;;;;;;;12.90;8.45;;;12.90;99.90;;;;;;4889491;29;20469;-69
2021/09/04 03:06:56;;;;;;;11.98;7.75;;;12.90;99.90;;;;;;4890090;29;20071;-69
2021/09/04 03:09:24;;;;;;;12.02;7.75;;;12.80;99.90;;;;;;4893765;29;20085;-70
2021/09/04 03:11:52;;;;;;;12.75;8.30;;;12.80;99.90;;;;;;4896799;29;20049;-69
2021/09/04 03:14:20;;;;;;;12.25;7.50;;;12.80;99.90;;;;;;4894291;29;20147;-69
2021/09/04 03:16:48;;;;;;;11.20;8.32;;;12.70;99.90;;;;;;4897102;29;20486;-69
2021/09/04 03:19:15;;;;;;;11.43;7.47;;;12.70;99.90;;;;;;4895227;29;20136;-69
2021/09/04 03:21:42;;;;;;;11.13;8.38;;;12.70;99.90;;;;;;4887394;29;20071;-69
2021/09/04 03:24:09;;;;;;;11.90;8.07;;;12.70;99.90;;;;;;4892265;29;20045;-69
2021/09/04 03:26:37;;;;;;;15.88;9.35;;;12.60;99.90;;;;;;4894085;29;20049;-69
2021/09/04 03:29:05;;;;;;;12.18;8.15;;;12.70;99.90;;;;;;4895542;29;20049;-69
2021/09/04 03:31:32;;;;;;;10.38;7.90;;;12.60;99.90;;;;;;4897616;29;20048;-69
2021/09/04 03:34:01;;;;;;;10.82;8.13;;;12.70;99.90;;;;;;4898823;29;20048;-69
2021/09/04 03:36:31;;;;;;;13.65;8.13;;;12.60;99.90;;;;;;4895077;29;20056;-69
2021/09/04 03:38:58;;;;;;;12.23;8.18;;;12.60;99.90;;;;;;4891061;29;20044;-69
2021/09/04 03:41:25;;;;;;;10.15;7.55;;;12.60;99.90;;;;;;4892911;29;20076;-69
2021/09/04 03:43:53;;;;;;;12.98;8.10;;;12.60;99.90;;;;;;4894955;29;20096;-69
2021/09/04 03:46:21;;;;;;;12.18;7.93;;;12.60;99.90;;;;;;4888137;29;20629;-69
2021/09/04 03:48:48;;;;;;;12.43;8.13;;;12.60;99.90;;;;;;4893874;29;20057;-69
2021/09/04 03:51:16;;;;;;;10.30;7.80;;;12.60;99.90;;;;;;4910078;29;20044;-69
2021/09/04 03:53:43;;;;;;;12.20;8.15;;;12.60;99.90;;;;;;4894394;29;20052;-69
2021/09/04 03:56:10;;;;;;;9.95;7.50;;;12.50;99.90;;;;;;4894730;29;20068;-69
2021/09/04 03:58:37;;;;;;;12.13;8.15;;;12.60;99.90;;;;;;4898998;29;20044;-69
2021/09/04 04:01:05;;;;;;;11.07;8.20;;;12.50;99.90;;;;;;4895925;29;20470;-69
2021/09/04 04:03:34;;;;;;;10.43;7.55;;;12.50;99.90;;;;;;4891368;29;20053;-69
2021/09/04 04:06:02;;;;;;;11.73;7.68;;;12.50;99.90;;;;;;4894125;29;20120;-68
2021/09/04 04:08:30;;;;;;;12.38;7.10;;;12.50;99.90;;;;;;4894858;29;20052;-68
2021/09/04 04:11:05;;;;;;;11.57;8.20;;;12.50;99.90;;;;;;4894321;29;20052;-68
2021/09/04 04:13:34;;;;;;;12.65;7.75;;;12.50;99.90;;;;;;4882478;29;20120;-69
2021/09/04 04:16:03;;;;;;;11.40;7.90;;;12.40;99.90;;;;;;4893999;29;20120;-68
2021/09/04 04:18:36;;;;;;;10.63;7.78;;;12.40;99.90;;;;;;4893868;29;20140;-69
2021/09/04 04:21:04;;;;;;;;;;;12.40;99.90;;;;;;4909418;29;20104;-68
2021/09/04 04:23:33;;;;;;;11.32;8.00;;;12.40;99.90;;;;;;4885090;29;20387;-69
2021/09/04 04:26:00;;;;;;;10.95;7.55;;;12.40;99.90;;;;;;4884867;29;20044;-70
2021/09/04 04:28:34;;;;;;;12.05;7.53;;;12.40;99.90;;;;;;4892095;29;20040;-69
2021/09/04 04:31:02;;;;;;;9.90;7.30;;;12.30;99.90;;;;;;4896365;29;20369;-70
2021/09/04 04:33:30;;;;;;;10.15;7.30;;;12.40;99.90;;;;;;4889790;29;20040;-70
2021/09/04 04:35:58;;;;;;;9.70;6.88;;;12.40;99.90;;;;;;4890742;29;20059;-70
2021/09/04 04:38:26;;;;;;;9.38;6.85;;;12.40;99.90;;;;;;4893285;29;20052;-70
2021/09/04 04:40:55;;;;;;;9.63;6.88;;;12.40;99.90;;;;;;4894405;29;20118;-71
2021/09/04 04:43:22;;;;;;;11.23;7.78;;;12.40;99.90;;;;;;4892899;29;20078;-70
2021/09/04 04:45:51;;;;;;;9.98;7.53;;;12.40;99.90;;;;;;4889848;29;20133;-70
2021/09/04 04:48:19;;;;;;;10.45;7.97;;;12.40;99.90;;;;;;4882184;29;20052;-69
2021/09/04 04:50:48;;;;;;;12.60;8.10;;;12.50;99.90;;;;;;4893868;29;20421;-69
2021/09/04 04:53:17;;;;;;;12.13;7.85;;;12.50;99.90;;;;;;4892912;29;20116;-69
2021/09/04 04:55:45;;;;;;;14.05;7.50;;;12.50;99.90;;;;;;4893379;29;20045;-70
2021/09/04 04:58:15;;;;;;;9.25;6.78;;;12.60;99.90;;;;;;4891075;29;20473;-70
2021/09/04 05:00:42;;;;;;;10.63;6.82;;;12.60;99.90;;;;;;4877702;29;20055;-69
2021/09/04 05:03:12;;;;;;;10.43;6.85;;;12.60;99.90;;;;;;4886003;29;20049;-70
2021/09/04 05:05:40;;;;;;;10.80;7.32;;;12.70;99.90;;;;;;4891452;29;20040;-69
2021/09/04 05:08:10;;;;;;;11.48;7.10;;;12.70;99.90;;;;;;4893520;29;20052;-70
2021/09/04 05:10:37;;;;;;;11.07;7.80;;;12.70;99.90;;;;;;4892007;29;20053;-69
2021/09/04 05:13:05;;;;;;;11.73;7.70;;;12.80;99.90;;;;;;4891152;29;20072;-69
2021/09/04 05:15:35;;;;;;;11.90;8.70;;;12.80;99.90;;;;;;4888123;29;20083;-69
2021/09/04 05:18:03;;;;;;;10.50;7.15;;;12.90;99.90;;;;;;4891628;29;20518;-69
2021/09/04 05:20:31;;;;;;;11.60;7.25;;;12.90;99.90;;;;;;4889627;29;20063;-70
2021/09/04 05:22:59;;;;;;;9.23;6.78;;;13.00;99.90;;;;;;4876959;29;20455;-70
2021/09/04 05:25:27;;;;;;;10.30;6.95;;;13.10;99.90;;;;;;4892289;29;20567;-70
2021/09/04 05:27:54;;;;;;;10.95;7.00;;;13.10;99.90;;;;;;4892964;29;20075;-70
2021/09/04 05:30:22;;;;;;;10.32;6.88;;;13.20;99.90;;;;;;4892596;29;20517;-69
2021/09/04 05:32:49;;;;;;;11.30;6.90;;;13.30;99.90;;;;;;4893414;29;20045;-68
2021/09/04 05:35:16;;;;;;;10.43;7.07;;;13.30;99.90;;;;;;4891677;29;20045;-68
2021/09/04 05:37:43;;;;;;;11.75;7.70;;;13.40;99.90;;;;;;4875444;29;20056;-69
2021/09/04 05:40:11;;;;;;;11.15;7.32;;;13.50;99.90;;;;;;4893742;29;20082;-69
2021/09/04 05:42:38;;;;;;;10.52;7.20;;;13.50;99.90;;;;;;4893403;29;20061;-69
2021/09/04 05:45:07;;;;;;;9.80;7.00;;;13.60;99.90;;;;;;4882988;29;20041;-69
2021/09/04 05:47:35;;;;;;;11.73;6.70;;;13.60;99.90;;;;;;4891040;29;20048;-69
2021/09/04 05:50:03;;;;;;;11.50;8.35;;;13.70;99.90;;;;;;4893700;29;20049;-69
2021/09/04 05:52:30;;;;;;;12.73;8.80;;;13.70;99.90;;;;;;4899682;29;20128;-69
2021/09/04 05:54:57;;;;;;;11.88;8.20;;;13.70;99.90;;;;;;4880075;29;20053;-70
2021/09/04 05:57:25;;;;;;;10.45;6.65;;;13.70;99.90;;;;;;4891513;29;20083;-69
2021/09/04 05:59:52;;;;;;;8.90;6.55;;;13.80;99.90;;;;;;4907390;29;20135;-69
2021/09/04 06:02:19;;;;;;;12.88;6.88;;;13.90;99.90;;;;;;4894047;29;20061;-70
2021/09/04 06:04:47;;;;;;;9.95;6.78;;;14.00;99.90;;;;;;4890409;29;20444;-69
2021/09/04 06:07:14;;;;;;;12.13;8.02;;;14.10;99.90;;;;;;4892829;29;20064;-68
2021/09/04 06:09:41;;;;;;;10.27;7.25;;;14.10;99.90;;;;;;4892773;29;20053;-69
2021/09/04 06:12:09;;;;;;;11.93;8.25;;;14.20;99.90;;;;;;4892800;29;20068;-69
2021/09/04 06:14:36;;;;;;;10.88;7.50;;;14.30;99.90;;;;;;4893615;29;20064;-69
2021/09/04 06:17:03;;;;;;;11.15;7.00;;;14.40;99.90;;;;;;4888703;29;20136;-68
2021/09/04 06:19:31;;;;;;;10.25;7.32;;;14.40;99.90;;;;;;4885716;29;20116;-68
2021/09/04 06:21:58;;;;;;;13.77;8.13;;;14.50;99.90;;;;;;4886365;29;20469;-68
2021/09/04 06:24:25;;;;;;;10.48;7.45;;;14.60;99.90;;;;;;4892077;29;20037;-69
2021/09/04 06:26:52;;;;;;;8.18;6.28;;;14.60;99.90;;;;;;4894261;29;20044;-68
2021/09/04 06:29:20;;;;;;;11.20;6.43;;;14.70;99.90;;;;;;4891699;29;20119;-69
2021/09/04 06:31:47;;;;;;;11.70;8.20;;;14.80;99.90;;;;;;4892957;29;20137;-69
2021/09/04 06:34:14;;;;;;;13.90;9.35;;;14.90;99.90;;;;;;4877937;29;20080;-68
2021/09/04 06:36:41;;;;;;;14.50;8.05;;;14.90;99.90;;;;;;4886894;29;20057;-69
2021/09/04 06:39:09;;;;;;;12.98;8.25;;;14.90;99.90;;;;;;4892143;29;20056;-70
2021/09/04 06:41:36;;;;;;;12.13;9.13;;;14.90;99.90;;;;;;4892603;29;20171;-69
2021/09/04 06:44:03;;;;;;;12.13;7.45;;;15.00;99.90;;;;;;4890981;29;20072;-70
2021/09/04 06:46:32;;;;;;;10.45;7.07;;;15.20;99.90;;;;;;4884736;29;20047;-68
2021/09/04 06:49:00;;;;;;;11.50;7.50;;;15.30;99.90;;;;;;4877546;29;20497;-69
2021/09/04 06:51:28;;;;;;;11.40;7.97;;;15.40;99.90;;;;;;4891186;29;20055;-70
2021/09/04 06:53:55;;;;;;;10.38;7.50;;;15.50;99.90;;;;;;4880504;29;20049;-69
2021/09/04 06:56:23;;;;;;;13.82;8.00;;;15.60;99.90;;;;;;4893493;29;20056;-69
2021/09/04 06:58:50;;;;;;;10.80;8.13;;;15.70;99.90;;;;;;4892019;29;20152;-69
2021/09/04 07:01:17;;;;;;;13.73;9.02;;;15.80;99.90;;;;;;4888492;29;20524;-70
2021/09/04 07:03:46;;;;;;;13.32;9.07;;;15.90;99.90;;;;;;4893305;29;20057;-70
2021/09/04 07:06:13;;;;;;;14.48;9.75;;;15.90;99.90;;;;;;4895109;29;20111;-69
2021/09/04 07:08:40;;;;;;;12.65;9.43;;;15.90;99.90;;;;;;4895438;29;20068;-69
2021/09/04 07:11:08;;;;;;;16.02;9.02;;;16.00;99.90;;;;;;4895887;29;20072;-69
2021/09/04 07:13:35;;;;;;;10.85;7.05;;;16.10;99.90;;;;;;4895331;29;20049;-69
2021/09/04 07:16:03;;;;;;;9.45;6.97;;;16.20;99.90;;;;;;4897618;29;20040;-68
2021/09/04 07:18:30;;;;;;;11.10;7.00;;;16.30;99.90;;;;;;4894393;29;20069;-69
2021/09/04 07:20:57;;;;;;;9.82;6.60;;;16.50;99.90;;;;;;4895683;29;20136;-69
2021/09/04 07:23:25;;;;;;;9.05;6.82;;;16.70;99.90;;;;;;4897437;29;20531;-69
2021/09/04 07:25:52;;;;;;;9.95;6.43;;;16.70;99.90;;;;;;4895945;29;20132;-69
2021/09/04 07:28:19;;;;;;;11.57;7.07;;;16.90;99.90;;;;;;4869938;29;20056;-70
2021/09/04 07:30:48;;;;;;;9.63;6.93;;;17.00;99.90;;;;;;4897287;29;20067;-69
2021/09/04 07:33:15;;;;;;;11.50;8.60;;;17.10;99.90;;;;;;4897841;29;20045;-70
2021/09/04 07:35:43;;;;;;;9.55;7.15;;;17.20;99.90;;;;;;4889962;29;20443;-70
2021/09/04 07:38:10;;;;;;;18.00;13.00;;;17.30;99.90;;;;;;4893841;29;20044;-70
2021/09/04 07:40:38;;;;;;;15.07;9.68;;;17.40;99.90;;;;;;4894080;29;20127;-69
2021/09/04 07:43:08;;;;;;;10.27;7.78;;;17.50;99.90;;;;;;4893157;29;20139;-69
2021/09/04 07:45:36;;;;;;;9.88;7.22;;;17.60;99.90;;;;;;4886760;29;20049;-69
2021/09/04 07:48:04;;;;;;;10.50;7.43;;;17.70;99.90;;;;;;4893342;29;20128;-69
2021/09/04 07:50:33;;;;;;;11.57;7.78;;;17.90;99.90;;;;;;4890723;29;20054;-69
2021/09/04 07:53:00;;;;;;;12.07;8.57;;;18.00;99.90;;;;;;4890865;29;20057;-69
2021/09/04 07:55:28;;;;;;;12.02;7.05;;;18.10;99.90;;;;;;4894434;29;20136;-69
2021/09/04 07:57:56;;;;;;;13.27;8.85;;;18.20;99.90;;;;;;4895016;29;20515;-69
2021/09/04 08:00:23;;;;;;;13.40;8.80;;;18.20;99.90;;;;;;4884425;29;20079;-69
2021/09/04 08:02:52;;;;;;;13.98;9.43;;;18.30;99.90;;;;;;4883570;29;20573;-69
2021/09/04 08:05:19;;;;;;;15.45;11.10;;;18.40;99.90;;;;;;4889984;29;20559;-69
2021/09/04 08:07:47;;;;;;;15.05;8.90;;;18.50;99.90;;;;;;4894526;29;20075;-69
2021/09/04 08:10:14;;;;;;;12.68;8.63;;;18.50;99.90;;;;;;4875645;29;20152;-69
2021/09/04 08:12:41;;;;;;;10.35;7.50;;;18.60;99.90;;;;;;4894091;29;20132;-69
2021/09/04 08:15:09;;;;;;;14.40;8.60;;;18.80;99.90;;;;;;4892850;29;20056;-69
2021/09/04 08:17:37;;;;;;;10.95;7.30;;;19.00;99.90;;;;;;4894988;29;20044;-69
2021/09/04 08:20:05;;;;;;;12.77;7.97;;;19.10;99.90;;;;;;4890630;29;20056;-69
2021/09/04 08:22:33;;;;;;;12.63;8.02;;;19.30;99.90;;;;;;4898680;29;20075;-69
2021/09/04 08:25:00;;;;;;;15.50;8.90;;;19.30;99.90;;;;;;4881561;29;20054;-69
2021/09/04 08:27:29;;;;;;;11.75;9.25;;;19.40;99.90;;;;;;4894594;29;20044;-69
2021/09/04 08:29:56;;;;;;;11.57;8.60;;;19.60;99.90;;;;;;4892070;29;20385;-69
2021/09/04 08:32:23;;;;;;;12.43;9.30;;;19.70;99.90;;;;;;4892227;29;20045;-69
2021/09/04 08:34:51;;;;;;;13.27;9.50;;;19.80;99.90;;;;;;4892999;29;20048;-69
2021/09/04 08:37:18;;;;;;;13.45;9.57;;;19.90;99.90;;;;;;4894559;29;20087;-69
2021/09/04 08:39:45;;;;;;;10.65;8.50;;;19.90;99.90;;;;;;4902189;29;20535;-69
2021/09/04 08:42:14;;;;;;;15.10;11.05;;;20.00;99.90;;;;;;4908196;29;20167;-69
2021/09/04 08:44:43;;;;;;;11.60;8.73;;;20.00;99.90;;;;;;4907903;29;20056;-69
2021/09/04 08:47:12;;;;;;;14.23;9.90;;;20.10;99.90;;;;;;4907900;29;20128;-69
2021/09/04 08:49:40;;;;;;;12.35;8.82;;;20.30;99.90;;;;;;4891031;29;20048;-69
2021/09/04 08:52:08;;;;;;;11.35;7.53;;;20.40;99.90;;;;;;4895866;29;20128;-69
2021/09/04 08:54:35;;;;;;;11.70;7.70;;;20.50;99.90;;;;;;4894468;29;20052;-69
2021/09/04 08:57:02;;;;;;;9.23;6.53;;;20.70;99.90;;;;;;4893529;29;20045;-69
2021/09/04 08:59:30;;;;;;;9.18;6.57;;;20.80;99.90;;;;;;4894463;29;20048;-68
2021/09/04 09:01:58;;;;;;;14.07;8.05;;;20.90;99.90;;;;;;4893341;29;20056;-69
2021/09/04 09:04:26;;;;;;;10.52;7.40;;;21.10;99.90;;;;;;4876933;29;20122;-68
2021/09/04 09:06:53;;;;;;;9.55;6.30;;;21.10;99.90;;;;;;4890255;29;20055;-69
2021/09/04 09:09:25;;;;;;;9.10;6.07;;;21.00;99.90;;;;;;4893854;29;20055;-69
2021/09/04 09:11:55;;;;;;;9.30;6.70;;;21.20;99.90;;;;;;4898425;29;20059;-69
2021/09/04 09:14:25;;;;;;;8.88;6.32;;;21.20;99.90;;;;;;4893322;29;20036;-69
2021/09/04 09:16:59;;;;;;;10.00;6.32;;;21.30;99.90;;;;;;4893027;29;20534;-69
2021/09/04 09:19:29;;;;;;;9.02;5.40;;;21.40;99.90;;;;;;4892362;29;20065;-69
2021/09/04 09:21:57;;;;;;;7.05;5.25;;;21.50;99.90;;;;;;4888883;29;20071;-69
2021/09/04 09:24:27;;;;;;;7.97;5.18;;;21.60;99.90;;;;;;4893070;29;20052;-69
2021/09/04 09:27:00;;;;;;;9.40;5.95;;;21.70;99.90;;;;;;4890424;29;20052;-69
2021/09/04 09:29:33;;;;;;;7.80;5.82;;;21.80;99.90;;;;;;4893198;29;20060;-69
2021/09/04 09:32:06;;;;;;;9.95;5.45;;;22.00;99.90;;;;;;4897700;29;20051;-69
2021/09/04 09:34:41;;;;;;;7.72;4.28;;;22.20;99.90;;;;;;4886969;29;20155;-70
2021/09/04 09:37:10;;;;;;;7.07;5.18;;;22.40;99.90;;;;;;4887647;29;20044;-70
2021/09/04 09:39:40;;;;;;;7.38;5.25;;;22.60;99.90;;;;;;4891920;29;20515;-69
2021/09/04 09:42:11;;;;;;;8.15;4.80;;;22.70;99.90;;;;;;4894051;29;20083;-69
2021/09/04 09:44:40;;;;;;;9.50;5.75;;;22.90;99.90;;;;;;4894826;29;20079;-69
2021/09/04 09:47:09;;;;;;;8.55;5.35;;;23.10;99.90;;;;;;4893850;29;20044;-69
2021/09/04 09:49:41;;;;;;;6.50;5.07;;;23.20;99.90;;;;;;4891040;29;20049;-69
2021/09/04 09:52:12;;;;;;;7.20;5.35;;;23.40;99.90;;;;;;4893417;29;20051;-69
2021/09/04 09:54:40;;;;;;;9.10;4.93;;;23.50;99.90;;;;;;4886235;29;20049;-68
2021/09/04 09:57:10;;;;;;;8.48;4.80;;;23.60;99.90;;;;;;4892300;29;20080;-69
2021/09/04 09:59:45;;;;;;;9.60;5.45;;;23.80;99.90;;;;;;4876058;29;20067;-69
2021/09/04 10:02:15;;;;;;;7.57;4.97;;;23.90;99.90;;;;;;4889019;29;20056;-69
2021/09/04 10:04:46;;;;;;;7.80;4.82;;;24.10;99.90;;;;;;4866146;29;20060;-69
2021/09/04 10:07:16;;;;;;;7.72;4.63;;;24.20;99.90;;;;;;4891027;29;20551;-68
2021/09/04 10:09:44;;;;;;;6.50;4.28;;;24.40;99.90;;;;;;4893989;29;20348;-68
2021/09/04 10:12:13;;;;;;;7.65;5.68;;;24.60;99.90;;;;;;4887471;29;20051;-69
2021/09/04 10:14:40;;;;;;;8.10;4.25;;;24.80;99.90;;;;;;4879445;29;20140;-68
2021/09/04 10:17:08;;;;;;;7.18;4.88;;;24.90;99.90;;;;;;4877266;29;20057;-68
2021/09/04 10:19:39;;;;;;;8.77;4.95;;;25.10;99.90;;;;;;4891403;29;20072;-68
2021/09/04 10:22:08;;;;;;;7.35;4.75;;;25.10;99.90;;;;;;4908232;29;20055;-68
2021/09/04 10:24:54;;;;;;;7.47;4.03;;;25.10;99.90;;;;;;4894155;29;20048;-68
2021/09/04 10:27:36;;;;;;;6.78;4.30;;;25.30;99.90;;;;;;4887850;29;20044;-68
2021/09/04 10:30:23;;;;;;;7.28;4.38;;;25.50;99.90;;;;;;4884061;29;20045;-68
2021/09/04 10:32:57;;;;;;;7.40;4.03;;;25.70;99.90;;;;;;4885712;29;20403;-68
2021/09/04 10:35:49;;;;;;;6.63;4.15;;;25.90;99.90;;;;;;4885410;29;20049;-68
2021/09/04 10:38:20;;;;;;;7.15;4.63;;;25.90;99.90;;;;;;4890489;29;20055;-68
2021/09/04 10:41:06;;;;;;;6.70;4.40;;;26.10;99.90;;;;;;4877903;29;20548;-69
2021/09/04 10:43:34;;;;;;;5.75;4.30;;;25.90;99.90;;;;;;4887079;29;20056;-69
2021/09/04 10:46:01;;;;;;;8.07;4.30;;;26.00;99.90;;;;;;4894608;29;20056;-69
2021/09/04 10:48:37;;;;;;;5.78;3.92;;;25.90;99.90;;;;;;4895705;29;20049;-69
2021/09/04 10:51:11;;;;;;;8.73;4.35;;;26.20;99.90;;;;;;4896290;29;20408;-69
2021/09/04 10:54:00;;;;;;;7.43;4.15;;;26.40;99.90;;;;;;4882565;29;20522;-70
2021/09/04 10:56:31;;;;;;;7.78;4.38;;;26.70;99.90;;;;;;4889094;29;20057;-70
2021/09/04 10:58:58;;;;;;;6.53;4.18;;;27.00;99.90;;;;;;4894167;29;20048;-70
2021/09/04 11:01:38;;;;;;;7.15;4.05;;;27.20;99.90;;;;;;4896816;29;20052;-70
2021/09/04 11:04:06;;;;;;;7.22;4.68;;;27.50;99.90;;;;;;4888404;29;20559;-68
2021/09/04 11:06:33;;;;;;;6.47;4.53;;;27.80;99.90;;;;;;4891409;29;20051;-69
2021/09/04 11:09:01;;;;;;;6.70;4.18;;;28.20;99.90;;;;;;4893649;29;20504;-69
2021/09/04 11:11:33;;;;;;;6.70;4.20;;;28.20;99.90;;;;;;4894696;29;20045;-69
2021/09/04 11:14:21;;;;;;;6.28;4.30;;;28.50;99.90;;;;;;4894451;29;20488;-70
2021/09/04 11:16:53;;;;;;;6.28;4.50;;;28.80;99.90;;;;;;4884013;29;20124;-69
2021/09/04 11:19:22;;;;;;;8.43;3.85;;;29.20;99.90;;;;;;4894673;29;20060;-69
2021/09/04 11:22:03;;;;;;;6.00;4.20;;;29.60;99.90;;;;;;4896673;29;20603;-69
2021/09/04 11:24:32;;;;;;;8.23;4.03;;;29.60;99.90;;;;;;4894693;29;20419;-69
2021/09/04 11:27:07;;;;;;;8.27;6.00;;;30.00;99.90;;;;;;4885561;29;20044;-69
2021/09/04 11:29:49;;;;;;;9.88;6.72;;;30.30;99.90;;;;;;4892608;29;20045;-70
2021/09/04 11:32:20;;;;;;;6.70;4.78;;;30.80;99.90;;;;;;4891918;29;20044;-69
2021/09/04 11:34:55;;;;;;;;;;;31.20;99.80;;;;;;4892154;29;20040;-69
2021/09/04 11:37:26;;;;;;;7.95;4.85;;;31.60;97.70;;;;;;4894344;29;19931;-69
2021/09/04 11:40:06;;;;;;;5.55;3.97;;;31.80;96.40;;;;;;4882926;29;20396;-69
2021/09/04 11:42:43;;;;;;;5.63;3.50;;;32.00;95.10;;;;;;4892741;29;20123;-68
2021/09/04 11:45:12;;;;;;;5.78;4.15;;;32.10;93.80;;;;;;4908531;29;20051;-69
2021/09/04 11:47:44;;;;;;;5.93;4.18;;;32.20;93.50;;;;;;4889840;29;20112;-69
2021/09/04 11:50:21;;;;;;;8.02;4.70;;;32.60;92.80;;;;;;4894499;29;20388;-69
2021/09/04 11:52:49;;;;;;;5.25;3.55;;;32.80;92.00;;;;;;4895991;29;20399;-68
2021/09/04 11:55:21;;;;;;;5.32;3.95;;;32.90;90.80;;;;;;4896165;29;20544;-68
2021/09/04 11:58:13;;;;;;;5.30;3.78;;;32.90;90.60;;;;;;4893620;29;20052;-68
2021/09/04 12:00:42;;;;;;;;;;;32.70;87.50;;;;;;4877284;29;20151;-68
2021/09/04 12:03:13;;;;;;;7.65;4.00;;;32.80;88.80;;;;;;4894281;29;20116;-68
2021/09/04 12:05:47;;;;;;;6.47;4.55;;;32.60;89.10;;;;;;4894093;29;20120;-68
2021/09/04 12:08:23;;;;;;;8.63;4.33;;;32.60;88.20;;;;;;4893911;29;20048;-68
2021/09/04 12:10:50;;;;;;;5.72;3.83;;;32.60;88.20;;;;;;4890123;29;20053;-68
2021/09/04 12:13:20;;;;;;;7.68;6.25;;;32.60;88.10;;;;;;4886643;29;20123;-68
2021/09/04 12:15:52;;;;;;;5.13;3.67;;;32.70;87.60;;;;;;4905446;29;20060;-68
2021/09/04 12:18:42;;;;;;;4.55;3.38;;;32.90;86.00;;;;;;4893689;29;20074;-69
2021/09/04 12:21:18;;;;;;;5.60;3.83;;;33.10;84.60;;;;;;4876589;29;20049;-68
2021/09/04 12:23:51;;;;;;;5.45;3.83;;;33.30;85.30;;;;;;4891669;29;20114;-68
2021/09/04 12:26:19;;;;;;;5.60;3.35;;;34.00;85.80;;;;;;4890505;29;20216;-69
2021/09/04 12:28:48;;;;;;;9.57;5.72;;;34.50;82.40;;;;;;4894048;29;20045;-69
2021/09/04 12:31:22;;;;;;;7.15;5.28;;;34.20;81.60;;;;;;4892891;29;20530;-68
2021/09/04 12:33:50;;;;;;;7.35;5.38;;;34.30;81.00;;;;;;4882703;29;20504;-68
2021/09/04 12:36:36;;;;;;;9.02;6.40;;;34.30;80.00;;;;;;4893042;29;20124;-69
2021/09/04 12:39:24;;;;;;;7.35;4.20;;;34.50;80.10;;;;;;4893088;29;20368;-69
2021/09/04 12:42:01;;;;;;;5.00;3.40;;;35.20;78.80;;;;;;4884759;29;20053;-69
2021/09/04 12:44:37;;;;;;;6.95;3.30;;;35.70;77.20;;;;;;4882466;29;20059;-68
2021/09/04 12:47:05;;;;;;;5.82;3.53;;;35.50;76.60;;;;;;4892907;29;20052;-68
2021/09/04 12:49:39;;;;;;;5.50;3.67;;;35.20;76.70;;;;;;4891204;29;20159;-69
2021/09/04 12:52:16;;;;;;;7.28;3.85;;;35.60;76.70;;;;;;4887124;29;20045;-69